createdAt,value
2019-03-31T00:00:26.969Z,99.90
2019-03-31T00:02:55.383Z,99.90
2019-03-31T00:05:23.791Z,99.90
2019-03-31T00:07:52.193Z,99.90
2019-03-31T00:10:20.609Z,99.90
2019-03-31T00:12:49.021Z,99.90
2019-03-31T00:15:17.501Z,99.90
2019-03-31T00:17:45.901Z,99.90
2019-03-31T00:20:14.657Z,99.90
2019-03-31T00:22:43.064Z,99.90
2019-03-31T00:25:13.005Z,99.90
2019-03-31T00:27:41.565Z,99.90
2019-03-31T00:30:10.316Z,99.90
2019-03-31T00:32:38.729Z,99.90
2019-03-31T00:35:07.139Z,99.90
2019-03-31T00:37:35.551Z,99.90
2019-03-31T00:40:05.930Z,99.90
2019-03-31T00:42:34.344Z,99.90
2019-03-31T00:45:02.790Z,99.90
2019-03-31T00:47:31.211Z,99.90
2019-03-31T00:49:59.622Z,99.90
2019-03-31T00:52:28.029Z,99.90
2019-03-31T00:54:56.443Z,99.90
2019-03-31T00:57:24.855Z,99.90
2019-03-31T00:59:53.266Z,99.90
2019-03-31T01:02:23.587Z,99.90
2019-03-31T01:04:52.065Z,99.90
2019-03-31T01:07:23.601Z,99.90
2019-03-31T01:09:53.732Z,99.90
2019-03-31T01:12:24.950Z,99.90
2019-03-31T01:14:53.365Z,99.90
2019-03-31T01:17:22.009Z,99.90
2019-03-31T01:19:52.053Z,99.90
2019-03-31T01:22:20.525Z,99.90
2019-03-31T01:24:49.105Z,99.90
2019-03-31T01:27:18.177Z,99.90
2019-03-31T01:29:46.592Z,99.90
2019-03-31T01:32:14.994Z,99.90
2019-03-31T01:34:43.480Z,99.90
2019-03-31T01:37:12.450Z,99.90
2019-03-31T01:39:41.122Z,99.90
2019-03-31T01:42:09.705Z,99.90
2019-03-31T01:44:38.102Z,99.90
2019-03-31T01:47:06.816Z,99.90
2019-03-31T01:49:35.221Z,99.90
2019-03-31T01:52:03.633Z,99.90
2019-03-31T01:54:32.042Z,99.90
2019-03-31T01:57:00.463Z,99.90
2019-03-31T01:59:28.855Z,99.90
2019-03-31T02:02:04.062Z,99.90
2019-03-31T02:04:27.571Z,99.90
2019-03-31T02:06:55.977Z,99.90
2019-03-31T02:09:24.385Z,99.90
2019-03-31T02:11:52.794Z,99.90
2019-03-31T02:14:21.202Z,99.90
2019-03-31T02:16:49.613Z,99.90
2019-03-31T02:19:18.017Z,99.90
2019-03-31T02:21:46.425Z,99.90
2019-03-31T02:24:14.829Z,99.90
2019-03-31T02:26:43.262Z,99.90
2019-03-31T02:29:11.652Z,99.90
2019-03-31T02:31:40.066Z,99.90
2019-03-31T02:34:08.480Z,99.90
2019-03-31T02:36:36.893Z,99.90
2019-03-31T02:39:05.806Z,99.90
2019-03-31T02:41:34.296Z,99.90
2019-03-31T02:44:02.985Z,99.90
2019-03-31T02:46:31.435Z,99.90
2019-03-31T02:49:00.088Z,99.90
2019-03-31T02:51:28.579Z,99.90
2019-03-31T02:53:57.245Z,99.90
2019-03-31T02:56:26.089Z,99.90
2019-03-31T02:58:55.235Z,99.90
2019-03-31T03:01:25.955Z,99.90
2019-03-31T03:03:55.504Z,99.90
2019-03-31T03:06:25.443Z,99.90
2019-03-31T03:08:56.194Z,99.90
2019-03-31T03:11:24.666Z,99.90
2019-03-31T03:13:53.464Z,99.90
2019-03-31T03:16:22.102Z,99.90
2019-03-31T03:18:50.679Z,99.90
2019-03-31T03:21:23.804Z,99.90
2019-03-31T03:23:49.460Z,99.90
2019-03-31T03:26:17.934Z,99.90
2019-03-31T03:28:46.514Z,99.90
2019-03-31T03:31:16.713Z,99.90
2019-03-31T03:33:45.679Z,99.90
2019-03-31T03:36:14.958Z,99.90
2019-03-31T03:38:43.372Z,99.90
2019-03-31T03:41:11.774Z,99.90
2019-03-31T03:43:54.184Z,99.90
2019-03-31T03:46:10.316Z,99.90
2019-03-31T03:48:38.728Z,99.90
2019-03-31T03:51:07.135Z,99.90
2019-03-31T03:53:35.562Z,99.90
2019-03-31T03:56:04.144Z,99.90
2019-03-31T03:58:32.550Z,99.90
2019-03-31T04:01:00.957Z,99.90
2019-03-31T04:03:31.116Z,99.90
2019-03-31T04:05:59.530Z,99.90
2019-03-31T04:08:28.137Z,99.90
2019-03-31T04:11:14.252Z,99.90
2019-03-31T04:13:42.668Z,99.90
2019-03-31T04:16:11.086Z,99.90
2019-03-31T04:18:39.794Z,99.90
2019-03-31T04:21:08.207Z,99.90
2019-03-31T04:23:36.618Z,99.90
2019-03-31T04:26:05.026Z,99.90
2019-03-31T04:28:33.435Z,99.90
2019-03-31T04:31:01.837Z,99.90
2019-03-31T04:33:48.443Z,99.90
2019-03-31T04:36:00.450Z,99.90
2019-03-31T04:38:28.861Z,99.90
2019-03-31T04:40:57.276Z,99.90
2019-03-31T04:43:25.678Z,99.90
2019-03-31T04:45:54.087Z,99.90
2019-03-31T04:48:22.489Z,99.90
2019-03-31T04:50:52.219Z,99.90
2019-03-31T04:53:20.972Z,99.90
2019-03-31T04:55:49.468Z,99.90
2019-03-31T04:58:17.879Z,99.90
2019-03-31T05:00:46.280Z,99.90
2019-03-31T05:03:14.709Z,99.90
2019-03-31T05:05:43.141Z,99.90
2019-03-31T05:08:11.558Z,99.90
2019-03-31T05:10:39.965Z,99.90
2019-03-31T05:13:08.373Z,99.90
2019-03-31T05:15:36.793Z,99.90
2019-03-31T05:18:05.201Z,99.90
2019-03-31T05:20:33.609Z,99.90
2019-03-31T05:23:02.021Z,99.90
2019-03-31T05:25:30.425Z,99.90
2019-03-31T05:27:58.830Z,99.90
2019-03-31T05:30:27.242Z,99.90
2019-03-31T05:32:55.648Z,99.90
2019-03-31T05:35:26.893Z,99.90
2019-03-31T05:37:54.185Z,99.90
2019-03-31T05:40:22.593Z,99.90
2019-03-31T05:42:51.010Z,99.90
2019-03-31T05:45:19.424Z,99.90
2019-03-31T05:47:47.822Z,99.90
2019-03-31T05:50:16.229Z,99.90
2019-03-31T05:52:44.724Z,99.90
2019-03-31T05:55:13.134Z,99.90
2019-03-31T05:57:41.549Z,99.90
2019-03-31T06:00:10.081Z,99.90
2019-03-31T06:02:38.484Z,99.90
2019-03-31T06:05:07.249Z,99.90
2019-03-31T06:07:35.650Z,99.90
2019-03-31T06:10:06.403Z,99.90
2019-03-31T06:12:34.810Z,99.90
2019-03-31T06:15:03.295Z,99.90
2019-03-31T06:17:31.697Z,99.90
2019-03-31T06:20:00.373Z,99.90
2019-03-31T06:22:28.889Z,99.90
2019-03-31T06:24:57.296Z,99.90
2019-03-31T06:27:25.702Z,99.90
2019-03-31T06:29:57.116Z,99.90
2019-03-31T06:32:25.637Z,99.90
2019-03-31T06:34:54.050Z,99.90
2019-03-31T06:37:22.458Z,99.90
2019-03-31T06:39:50.882Z,99.90
2019-03-31T06:42:19.281Z,99.90
2019-03-31T06:44:47.695Z,99.90
2019-03-31T06:47:16.095Z,99.90
2019-03-31T06:49:44.505Z,99.90
2019-03-31T06:52:12.913Z,99.90
2019-03-31T06:54:41.331Z,99.90
2019-03-31T06:57:09.734Z,99.90
2019-03-31T06:59:38.154Z,99.90
2019-03-31T07:02:06.567Z,99.90
2019-03-31T07:04:34.986Z,99.90
2019-03-31T07:07:03.390Z,99.90
2019-03-31T07:09:31.801Z,99.90
2019-03-31T07:12:00.227Z,99.90
2019-03-31T07:14:28.639Z,99.90
2019-03-31T07:16:57.050Z,99.90
2019-03-31T07:19:25.642Z,99.90
2019-03-31T07:21:54.328Z,99.90
2019-03-31T07:24:22.804Z,99.90
2019-03-31T07:26:51.293Z,99.90
2019-03-31T07:29:19.697Z,99.90
2019-03-31T07:31:48.161Z,99.90
2019-03-31T07:34:16.569Z,99.90
2019-03-31T07:36:44.988Z,99.90
2019-03-31T07:39:13.737Z,99.90
2019-03-31T07:41:42.433Z,99.90
2019-03-31T07:44:10.949Z,99.90
2019-03-31T07:46:39.383Z,91.70
2019-03-31T07:49:07.797Z,77.40
2019-03-31T07:51:37.659Z,70.90
2019-03-31T07:54:06.206Z,61.90
2019-03-31T07:56:34.617Z,53.90
2019-03-31T07:59:03.040Z,49.70
2019-03-31T08:01:31.454Z,49.30
2019-03-31T08:03:59.866Z,45.00
2019-03-31T08:06:28.282Z,41.20
2019-03-31T08:08:56.700Z,40.10
2019-03-31T08:11:25.114Z,41.60
2019-03-31T08:13:55.248Z,41.20
2019-03-31T08:16:23.949Z,39.30
2019-03-31T08:18:52.434Z,40.10
2019-03-31T08:21:20.853Z,38.00
2019-03-31T08:23:49.301Z,38.30
2019-03-31T08:26:17.717Z,35.40
2019-03-31T08:28:46.274Z,34.50
2019-03-31T08:31:14.694Z,34.80
2019-03-31T08:33:43.358Z,34.50
2019-03-31T08:36:11.828Z,36.00
2019-03-31T08:38:40.574Z,34.10
2019-03-31T08:41:08.990Z,33.80
2019-03-31T08:43:37.400Z,33.20
2019-03-31T08:46:05.817Z,31.90
2019-03-31T08:48:34.226Z,31.80
2019-03-31T08:51:02.646Z,31.30
2019-03-31T08:53:31.055Z,30.00
2019-03-31T08:55:59.917Z,30.50
2019-03-31T08:58:28.326Z,31.10
2019-03-31T09:00:58.383Z,31.40
2019-03-31T09:03:26.814Z,32.10
2019-03-31T09:06:01.699Z,32.20
2019-03-31T09:08:25.377Z,31.70
2019-03-31T09:10:53.792Z,30.80
2019-03-31T09:13:22.209Z,32.40
2019-03-31T09:15:50.652Z,33.50
2019-03-31T09:18:19.063Z,34.00
2019-03-31T09:20:47.470Z,33.20
2019-03-31T09:23:15.889Z,31.50
2019-03-31T09:25:47.501Z,30.20
2019-03-31T09:28:14.450Z,30.40
2019-03-31T09:30:42.917Z,30.80
2019-03-31T09:33:11.650Z,29.80
2019-03-31T09:35:40.076Z,29.00
2019-03-31T09:38:08.486Z,29.60
2019-03-31T09:40:36.969Z,29.00
2019-03-31T09:43:05.386Z,29.90
2019-03-31T09:45:33.894Z,29.60
2019-03-31T09:48:02.396Z,29.90
2019-03-31T09:50:30.814Z,28.50
2019-03-31T09:52:59.318Z,28.80
2019-03-31T09:55:27.733Z,28.30
2019-03-31T09:57:56.155Z,26.70
2019-03-31T10:00:30.623Z,27.80
2019-03-31T10:03:01.164Z,30.10
2019-03-31T10:05:29.189Z,30.50
2019-03-31T10:07:57.686Z,34.30
2019-03-31T10:10:30.963Z,35.60
2019-03-31T10:12:59.618Z,37.30
2019-03-31T10:15:28.025Z,38.80
2019-03-31T10:17:56.523Z,40.30
2019-03-31T10:20:24.931Z,44.00
2019-03-31T10:22:53.394Z,43.90
2019-03-31T10:25:21.805Z,45.20
2019-03-31T10:27:50.233Z,45.00
2019-03-31T10:30:33.082Z,44.30
2019-03-31T10:33:01.629Z,45.00
2019-03-31T10:35:30.482Z,45.10
2019-03-31T10:37:58.904Z,44.40
2019-03-31T10:40:27.573Z,40.60
2019-03-31T10:42:55.977Z,37.50
2019-03-31T10:45:24.821Z,34.50
2019-03-31T10:47:53.317Z,34.40
2019-03-31T10:50:21.737Z,32.60
2019-03-31T10:52:50.216Z,33.00
2019-03-31T10:55:18.705Z,33.90
2019-03-31T10:57:47.139Z,34.30
2019-03-31T11:00:17.757Z,35.70
2019-03-31T11:02:46.182Z,32.10
2019-03-31T11:05:14.598Z,29.90
2019-03-31T11:07:43.010Z,30.90
2019-03-31T11:10:11.598Z,30.70
2019-03-31T11:12:40.009Z,31.70
2019-03-31T11:15:08.757Z,29.90
2019-03-31T11:17:37.362Z,29.60
2019-03-31T11:20:06.959Z,27.80
2019-03-31T11:22:37.008Z,28.30
2019-03-31T11:25:20.203Z,27.40
2019-03-31T11:27:37.506Z,27.60
2019-03-31T11:30:09.184Z,28.00
2019-03-31T11:32:37.600Z,26.90
2019-03-31T11:35:06.950Z,27.10
2019-03-31T11:37:35.365Z,26.10
2019-03-31T11:40:05.963Z,28.10
2019-03-31T11:42:34.372Z,28.10
2019-03-31T11:45:03.061Z,29.70
2019-03-31T11:47:31.477Z,28.60
2019-03-31T11:49:59.898Z,29.00
2019-03-31T11:52:28.393Z,29.30
2019-03-31T11:54:56.858Z,28.70
2019-03-31T11:57:25.273Z,29.60
2019-03-31T11:59:53.749Z,29.20
2019-03-31T12:02:27.248Z,30.20
2019-03-31T12:04:53.578Z,31.20
2019-03-31T12:07:28.222Z,30.00
2019-03-31T12:09:55.331Z,32.40
2019-03-31T12:12:23.769Z,32.40
2019-03-31T12:15:00.401Z,31.00
2019-03-31T12:17:22.373Z,32.90
2019-03-31T12:19:50.796Z,33.50
2019-03-31T12:22:19.202Z,33.50
2019-03-31T12:24:48.081Z,33.10
2019-03-31T12:27:16.491Z,32.10
2019-03-31T12:29:44.996Z,32.20
2019-03-31T12:32:13.406Z,32.80
2019-03-31T12:34:41.830Z,32.90
2019-03-31T12:37:10.298Z,32.80
2019-03-31T12:39:38.709Z,33.00
2019-03-31T12:42:07.126Z,32.30
2019-03-31T12:44:35.538Z,32.70
2019-03-31T12:47:04.022Z,30.00
2019-03-31T12:49:32.647Z,32.40
2019-03-31T12:52:01.093Z,33.30
2019-03-31T12:54:29.675Z,31.10
2019-03-31T12:56:58.090Z,30.30
2019-03-31T12:59:27.508Z,30.50
2019-03-31T13:01:56.181Z,30.90
2019-03-31T13:04:24.597Z,31.60
2019-03-31T13:06:53.017Z,33.10
2019-03-31T13:09:21.405Z,32.60
2019-03-31T13:11:50.519Z,32.90
2019-03-31T13:14:19.015Z,29.90
2019-03-31T13:16:47.422Z,31.70
2019-03-31T13:19:15.839Z,31.30
2019-03-31T13:21:44.245Z,32.10
2019-03-31T13:24:12.653Z,31.10
2019-03-31T13:26:41.065Z,31.50
2019-03-31T13:29:09.545Z,31.00
2019-03-31T13:31:38.029Z,32.50
2019-03-31T13:34:06.442Z,33.70
2019-03-31T13:36:34.861Z,33.30
2019-03-31T13:39:05.090Z,32.40
2019-03-31T13:41:33.502Z,32.10
2019-03-31T13:44:01.911Z,33.50
2019-03-31T13:46:30.318Z,31.80
2019-03-31T13:48:58.741Z,32.00
2019-03-31T13:51:27.157Z,30.90
2019-03-31T13:53:55.558Z,31.30
2019-03-31T13:56:23.983Z,30.00
2019-03-31T13:58:52.851Z,31.30
2019-03-31T14:01:21.460Z,30.20
2019-03-31T14:03:49.866Z,32.10
2019-03-31T14:06:18.557Z,34.10
2019-03-31T14:08:46.969Z,35.50
2019-03-31T14:11:15.387Z,37.40
2019-03-31T14:13:43.814Z,38.60
2019-03-31T14:16:12.234Z,40.10
2019-03-31T14:18:40.665Z,40.90
2019-03-31T14:21:09.086Z,42.10
2019-03-31T14:23:37.498Z,41.30
2019-03-31T14:26:06.013Z,43.00
2019-03-31T14:28:34.499Z,42.10
2019-03-31T14:31:02.914Z,42.20
2019-03-31T14:33:31.331Z,41.90
2019-03-31T14:35:59.740Z,41.60
2019-03-31T14:38:39.541Z,41.20
2019-03-31T14:40:58.321Z,41.30
2019-03-31T14:43:28.130Z,42.00
2019-03-31T14:45:56.622Z,42.50
2019-03-31T14:48:25.113Z,42.90
2019-03-31T14:50:53.526Z,42.30
2019-03-31T14:53:21.949Z,42.60
2019-03-31T14:55:50.356Z,43.30
2019-03-31T14:58:18.776Z,42.30
2019-03-31T15:00:47.191Z,42.40
2019-03-31T15:03:18.067Z,43.10
2019-03-31T15:05:45.733Z,43.50
2019-03-31T15:08:14.189Z,43.50
2019-03-31T15:10:42.597Z,44.20
2019-03-31T15:13:11.009Z,44.00
2019-03-31T15:15:39.418Z,43.70
2019-03-31T15:18:07.841Z,43.40
2019-03-31T15:20:36.241Z,43.50
2019-03-31T15:23:04.653Z,42.70
2019-03-31T15:25:33.133Z,44.00
2019-03-31T15:28:01.549Z,43.50
2019-03-31T15:30:30.038Z,43.40
2019-03-31T15:32:58.457Z,43.30
2019-03-31T15:35:26.951Z,44.00
2019-03-31T15:37:55.449Z,44.60
2019-03-31T15:40:23.905Z,44.40
2019-03-31T15:42:52.341Z,44.80
2019-03-31T15:45:20.749Z,45.20
2019-03-31T15:47:49.174Z,45.60
2019-03-31T15:50:18.033Z,45.40
2019-03-31T15:52:46.450Z,46.70
2019-03-31T15:55:14.932Z,46.30
2019-03-31T15:57:43.352Z,46.40
2019-03-31T16:00:12.175Z,45.40
2019-03-31T16:02:40.585Z,46.70
2019-03-31T16:05:12.554Z,47.00
2019-03-31T16:07:39.493Z,47.50
2019-03-31T16:10:09.649Z,47.40
2019-03-31T16:12:38.084Z,47.90
2019-03-31T16:15:06.842Z,48.60
2019-03-31T16:17:35.271Z,48.20
2019-03-31T16:20:04.444Z,48.50
2019-03-31T16:22:32.864Z,48.40
2019-03-31T16:25:03.046Z,48.10
2019-03-31T16:27:31.505Z,47.60
2019-03-31T16:29:59.918Z,48.30
2019-03-31T16:32:28.359Z,48.80
2019-03-31T16:34:56.825Z,48.80
2019-03-31T16:37:25.308Z,48.90
2019-03-31T16:39:53.796Z,48.90
2019-03-31T16:42:22.213Z,49.40
2019-03-31T16:44:57.975Z,50.00
2019-03-31T16:47:20.748Z,51.20
2019-03-31T16:49:49.161Z,51.80
2019-03-31T16:52:17.569Z,52.00
2019-03-31T16:54:46.013Z,52.80
2019-03-31T16:57:14.486Z,53.30
2019-03-31T16:59:42.978Z,53.90
2019-03-31T17:02:11.437Z,55.00
2019-03-31T17:04:39.846Z,56.20
2019-03-31T17:07:08.253Z,57.40
2019-03-31T17:09:50.699Z,59.30
2019-03-31T17:12:06.806Z,61.40
2019-03-31T17:14:35.216Z,63.30
2019-03-31T17:17:03.658Z,65.90
2019-03-31T17:19:32.072Z,71.00
2019-03-31T17:22:00.473Z,74.60
2019-03-31T17:24:29.057Z,81.10
2019-03-31T17:26:57.465Z,89.60
2019-03-31T17:29:25.901Z,95.00
2019-03-31T17:31:54.293Z,99.70
2019-03-31T17:34:22.705Z,99.90
2019-03-31T17:36:51.501Z,99.90
2019-03-31T17:39:19.913Z,99.90
2019-03-31T17:41:48.327Z,99.90
2019-03-31T17:44:16.858Z,99.90
2019-03-31T17:46:45.346Z,99.90
2019-03-31T17:49:13.764Z,99.90
2019-03-31T17:51:42.217Z,99.90
2019-03-31T17:54:10.647Z,99.90
2019-03-31T17:56:39.189Z,99.90
2019-03-31T17:59:09.066Z,99.90
2019-03-31T18:01:37.753Z,99.90
2019-03-31T18:04:06.238Z,99.90
2019-03-31T18:06:34.655Z,99.90
2019-03-31T18:09:04.726Z,99.90
2019-03-31T18:11:33.133Z,99.90
2019-03-31T18:14:01.559Z,99.90
2019-03-31T18:16:29.974Z,99.90
2019-03-31T18:18:58.384Z,99.90
2019-03-31T18:21:27.347Z,99.90
2019-03-31T18:23:56.010Z,99.90
2019-03-31T18:26:24.505Z,99.90
2019-03-31T18:28:53.040Z,99.90
2019-03-31T18:31:21.455Z,99.90
2019-03-31T18:33:49.883Z,99.90
2019-03-31T18:36:18.349Z,99.90
2019-03-31T18:38:46.794Z,99.90
2019-03-31T18:41:15.282Z,99.90
2019-03-31T18:43:51.409Z,99.90
2019-03-31T18:46:13.880Z,99.90
2019-03-31T18:48:42.289Z,99.90
2019-03-31T18:51:10.706Z,99.90
2019-03-31T18:53:43.473Z,99.90
2019-03-31T18:56:18.042Z,99.90
2019-03-31T18:58:59.946Z,99.90
2019-03-31T19:01:35.830Z,99.90
2019-03-31T19:04:05.870Z,99.90
2019-03-31T19:06:44.978Z,99.90
2019-03-31T19:09:20.765Z,99.90
2019-03-31T19:12:07.284Z,99.90
2019-03-31T19:14:43.409Z,99.90
2019-03-31T19:17:16.478Z,99.90
2019-03-31T19:20:02.573Z,99.90
2019-03-31T19:22:48.050Z,99.90
2019-03-31T19:25:36.013Z,99.90
2019-03-31T19:28:06.071Z,99.90
2019-03-31T19:30:47.932Z,99.90
2019-03-31T19:33:36.098Z,99.90
2019-03-31T19:36:22.806Z,99.90
2019-03-31T19:38:52.861Z,99.90
2019-03-31T19:41:25.657Z,99.90
2019-03-31T19:44:04.701Z,99.90
2019-03-31T19:46:40.704Z,99.90
2019-03-31T19:49:13.391Z,99.90
2019-03-31T19:51:46.150Z,99.90
2019-03-31T19:54:21.989Z,99.90
2019-03-31T19:57:12.077Z,99.90
2019-03-31T19:59:51.191Z,99.90
2019-03-31T20:02:25.428Z,99.90
2019-03-31T20:04:55.589Z,99.90
2019-03-31T20:07:37.358Z,99.90
2019-03-31T20:10:07.978Z,99.90
2019-03-31T20:12:54.085Z,99.90
2019-03-31T20:15:40.741Z,99.90
2019-03-31T20:18:10.795Z,99.90
2019-03-31T20:20:40.838Z,99.90
2019-03-31T20:23:19.606Z,99.90
2019-03-31T20:25:49.656Z,99.90
2019-03-31T20:28:22.429Z,99.90
2019-03-31T20:31:01.553Z,99.90
2019-03-31T20:33:31.598Z,99.90
2019-03-31T20:36:04.357Z,99.90
2019-03-31T20:38:55.400Z,99.90
2019-03-31T20:41:23.942Z,99.90
2019-03-31T20:43:55.246Z,99.90
2019-03-31T20:46:23.724Z,99.90
2019-03-31T20:48:52.693Z,99.90
2019-03-31T20:51:21.100Z,99.90
2019-03-31T20:53:49.665Z,99.90
2019-03-31T20:56:19.001Z,99.90
2019-03-31T20:58:47.408Z,99.90
2019-03-31T21:01:15.827Z,99.90
2019-03-31T21:03:44.301Z,99.90
2019-03-31T21:06:12.757Z,99.90
2019-03-31T21:08:41.196Z,99.90
2019-03-31T21:11:09.604Z,99.90
2019-03-31T21:13:38.016Z,99.90
2019-03-31T21:16:06.431Z,99.90
2019-03-31T21:18:35.385Z,99.90
2019-03-31T21:21:03.837Z,99.90
2019-03-31T21:23:32.237Z,99.90
2019-03-31T21:26:00.655Z,99.90
2019-03-31T21:28:29.057Z,99.90
2019-03-31T21:30:57.553Z,99.90
2019-03-31T21:33:25.956Z,99.90
2019-03-31T21:35:54.374Z,99.90
2019-03-31T21:38:22.786Z,99.90
2019-03-31T21:40:51.206Z,99.90
2019-03-31T21:43:19.613Z,99.90
2019-03-31T21:45:48.025Z,99.90
2019-03-31T21:48:16.433Z,99.90
2019-03-31T21:50:44.898Z,99.90
2019-03-31T21:53:13.303Z,99.90
2019-03-31T21:55:41.698Z,99.90
2019-03-31T21:58:10.109Z,99.90
2019-03-31T22:00:51.732Z,99.90
2019-03-31T22:03:20.362Z,99.90
2019-03-31T22:05:48.773Z,99.90
2019-03-31T22:08:17.192Z,99.90
2019-03-31T22:10:45.597Z,99.90
2019-03-31T22:13:14.007Z,99.90
2019-03-31T22:15:42.405Z,99.90
2019-03-31T22:18:10.821Z,99.90
2019-03-31T22:20:39.234Z,99.90
2019-03-31T22:23:07.649Z,99.90
2019-03-31T22:25:36.073Z,99.90
2019-03-31T22:28:04.457Z,99.90
2019-03-31T22:30:34.500Z,99.90
2019-03-31T22:33:02.910Z,99.90
2019-03-31T22:35:31.315Z,99.90
2019-03-31T22:38:02.381Z,99.90
2019-03-31T22:40:29.940Z,99.90
2019-03-31T22:42:58.345Z,99.90
2019-03-31T22:45:26.758Z,99.90
2019-03-31T22:47:55.165Z,99.90
2019-03-31T22:50:23.573Z,99.90
2019-03-31T22:52:52.153Z,99.90
2019-03-31T22:55:20.558Z,99.90
2019-03-31T22:57:48.972Z,99.90
2019-03-31T23:00:21.464Z,99.90
2019-03-31T23:02:49.945Z,99.90
2019-03-31T23:05:18.350Z,99.90
2019-03-31T23:07:46.761Z,99.90
2019-03-31T23:10:15.170Z,99.90
2019-03-31T23:12:43.677Z,99.90
2019-03-31T23:15:12.081Z,99.90
2019-03-31T23:17:40.493Z,99.90
2019-03-31T23:20:08.895Z,99.90
2019-03-31T23:22:37.328Z,99.90
2019-03-31T23:25:06.198Z,99.90
2019-03-31T23:27:34.613Z,99.90
2019-03-31T23:30:05.250Z,99.90
2019-03-31T23:32:33.665Z,99.90
2019-03-31T23:35:02.076Z,99.90
2019-03-31T23:37:30.490Z,99.90
2019-03-31T23:39:58.893Z,99.90
2019-03-31T23:42:27.373Z,99.90
2019-03-31T23:44:55.784Z,99.90
2019-03-31T23:47:24.237Z,99.90
2019-03-31T23:49:52.646Z,99.90
2019-03-31T23:52:21.057Z,99.90
2019-03-31T23:54:49.465Z,99.90
2019-03-31T23:57:17.871Z,99.90
2019-03-31T23:59:46.280Z,99.90
